createdAt,value
2019-03-22T00:01:40.508Z,17.98
2019-03-22T00:04:10.526Z,18.73
2019-03-22T00:06:40.645Z,17.77
2019-03-22T00:09:10.970Z,18.77
2019-03-22T00:11:41.088Z,17.77
2019-03-22T00:14:12.846Z,18.65
2019-03-22T00:16:46.140Z,18.52
2019-03-22T00:19:16.261Z,19.30
2019-03-22T00:21:46.378Z,19.15
2019-03-22T00:24:17.829Z,19.60
2019-03-22T00:26:50.926Z,19.62
2019-03-22T00:29:21.245Z,18.48
2019-03-22T00:31:52.902Z,20.25
2019-03-22T00:34:23.222Z,19.37
2019-03-22T00:36:53.657Z,19.57
2019-03-22T00:39:23.873Z,19.70
2019-03-22T00:41:54.201Z,18.95
2019-03-22T00:44:24.417Z,17.92
2019-03-22T00:46:56.789Z,18.35
2019-03-22T00:49:27.112Z,19.23
2019-03-22T00:51:57.642Z,18.55
2019-03-22T00:54:27.967Z,18.35
2019-03-22T00:56:59.826Z,18.32
2019-03-22T00:59:30.459Z,18.95
2019-03-22T01:02:13.818Z,20.57
2019-03-22T01:04:44.520Z,20.80
2019-03-22T01:07:16.690Z,21.25
2019-03-22T01:09:46.705Z,22.85
2019-03-22T01:12:16.929Z,22.00
2019-03-22T01:14:47.457Z,20.48
2019-03-22T01:17:17.780Z,19.57
2019-03-22T01:19:48.104Z,22.05
2019-03-22T01:22:18.326Z,22.65
2019-03-22T01:30:04.972Z,22.40
2019-03-22T01:32:36.549Z,22.65
2019-03-22T01:35:10.945Z,21.45
2019-03-22T01:37:42.803Z,21.80
2019-03-22T01:40:15.892Z,23.95
2019-03-22T01:42:48.774Z,23.38
2019-03-22T01:45:18.996Z,22.17
2019-03-22T01:47:49.115Z,22.32
2019-03-22T01:50:19.340Z,21.93
2019-03-22T01:52:49.455Z,21.70
2019-03-22T01:55:19.678Z,21.50
2019-03-22T01:57:53.387Z,20.88
2019-03-22T02:02:55.360Z,22.27
2019-03-22T02:05:25.992Z,21.17
2019-03-22T02:07:56.215Z,20.72
2019-03-22T02:10:27.869Z,21.60
2019-03-22T02:12:58.194Z,20.50
2019-03-22T02:15:29.190Z,21.30
2019-03-22T02:17:59.668Z,22.60
2019-03-22T02:20:29.782Z,22.05
2019-03-22T02:23:00.109Z,21.27
2019-03-22T02:25:30.224Z,21.87
2019-03-22T02:28:04.476Z,19.60
2019-03-22T02:30:34.458Z,20.20
2019-03-22T02:33:04.780Z,20.80
2019-03-22T02:35:35.004Z,20.72
2019-03-22T02:38:05.226Z,20.32
2019-03-22T02:40:35.451Z,19.62
2019-03-22T02:43:05.685Z,20.68
2019-03-22T02:45:35.890Z,19.52
2019-03-22T02:48:05.910Z,20.37
2019-03-22T02:50:36.131Z,19.62
2019-03-22T02:53:07.277Z,17.25
2019-03-22T02:55:39.030Z,18.57
2019-03-22T02:58:20.307Z,18.00
2019-03-22T03:00:53.351Z,19.20
2019-03-22T03:03:24.031Z,18.20
2019-03-22T03:05:54.318Z,18.92
2019-03-22T03:08:27.120Z,19.60
2019-03-22T03:10:56.952Z,19.12
2019-03-22T03:13:28.504Z,18.15
2019-03-22T03:15:58.727Z,18.35
2019-03-22T03:18:28.746Z,19.05
2019-03-22T03:20:58.964Z,18.32
2019-03-22T03:23:29.187Z,18.05
2019-03-22T03:25:59.407Z,16.05
2019-03-22T03:28:36.471Z,16.20
2019-03-22T03:31:01.593Z,16.35
2019-03-22T03:33:31.728Z,15.48
2019-03-22T03:36:02.969Z,15.68
2019-03-22T03:38:33.691Z,14.90
2019-03-22T03:41:04.770Z,15.38
2019-03-22T03:43:35.056Z,15.88
2019-03-22T03:46:05.183Z,14.87
2019-03-22T03:48:35.508Z,16.27
2019-03-22T03:51:05.726Z,17.15
2019-03-22T03:53:35.740Z,16.40
2019-03-22T03:56:10.888Z,17.45
2019-03-22T03:58:52.221Z,15.23
2019-03-22T04:01:12.550Z,15.63
2019-03-22T04:03:42.670Z,15.88
2019-03-22T04:06:13.915Z,17.62
2019-03-22T04:08:44.136Z,17.12
2019-03-22T04:11:17.532Z,17.45
2019-03-22T04:16:18.899Z,15.80
2019-03-22T04:18:49.335Z,17.77
2019-03-22T04:21:19.647Z,17.17
2019-03-22T04:23:49.870Z,16.87
2019-03-22T04:26:20.195Z,18.55
2019-03-22T04:29:06.011Z,17.80
2019-03-22T04:31:23.094Z,18.30
2019-03-22T04:33:53.215Z,18.45
2019-03-22T04:36:23.334Z,17.85
2019-03-22T04:38:53.557Z,18.15
2019-03-22T04:41:29.320Z,18.30
2019-03-22T04:43:59.333Z,18.60
2019-03-22T04:46:29.443Z,18.30
2019-03-22T04:48:59.665Z,18.52
2019-03-22T04:51:29.989Z,21.27
2019-03-22T04:54:01.389Z,19.82
2019-03-22T04:56:31.970Z,20.60
2019-03-22T04:59:02.499Z,19.62
2019-03-22T05:01:32.617Z,19.10
2019-03-22T05:04:04.785Z,17.80
2019-03-22T05:06:35.107Z,17.60
2019-03-22T05:09:10.234Z,17.05
2019-03-22T05:11:40.865Z,18.32
2019-03-22T05:14:28.099Z,16.15
2019-03-22T05:17:00.246Z,16.07
2019-03-22T05:19:30.999Z,15.83
2019-03-22T05:22:01.426Z,15.60
2019-03-22T05:24:33.745Z,16.12
2019-03-22T05:27:04.636Z,16.10
2019-03-22T05:29:35.675Z,16.25
2019-03-22T05:32:08.159Z,15.15
2019-03-22T05:34:38.474Z,15.80
2019-03-22T05:37:08.803Z,14.25
2019-03-22T05:39:39.021Z,15.35
2019-03-22T05:42:09.241Z,15.88
2019-03-22T05:44:39.575Z,15.58
2019-03-22T05:47:09.686Z,15.20
2019-03-22T05:49:40.112Z,16.40
2019-03-22T05:52:10.539Z,15.85
2019-03-22T05:54:41.056Z,16.62
2019-03-22T05:57:13.516Z,15.63
2019-03-22T05:59:48.167Z,16.37
2019-03-22T06:02:18.390Z,17.02
2019-03-22T06:04:48.611Z,17.10
2019-03-22T06:07:18.833Z,16.00
2019-03-22T06:09:50.530Z,16.62
2019-03-22T06:12:21.327Z,16.82
2019-03-22T06:14:51.753Z,16.85
2019-03-22T06:17:21.870Z,20.23
2019-03-22T06:19:52.094Z,17.48
2019-03-22T06:22:22.417Z,53.17
2019-03-22T06:24:52.638Z,18.02
2019-03-22T06:27:22.860Z,18.48
2019-03-22T06:29:54.407Z,28.85
2019-03-22T06:32:25.045Z,72.85
2019-03-22T06:34:55.266Z,19.42
2019-03-22T06:37:27.127Z,17.00
2019-03-22T06:40:00.363Z,18.55
2019-03-22T06:42:33.202Z,23.92
2019-03-22T06:45:03.425Z,26.35
2019-03-22T06:47:33.749Z,25.62
2019-03-22T06:50:08.478Z,23.02
2019-03-22T06:52:38.699Z,18.80
2019-03-22T06:55:11.693Z,18.10
2019-03-22T06:57:42.111Z,18.25
2019-03-22T07:00:13.455Z,15.85
2019-03-22T07:02:43.887Z,18.00
2019-03-22T07:05:14.107Z,17.32
2019-03-22T07:07:44.520Z,17.65
2019-03-22T07:10:14.859Z,14.93
2019-03-22T07:12:45.082Z,17.20
2019-03-22T07:15:15.306Z,15.72
2019-03-22T07:17:46.818Z,49.13
2019-03-22T07:20:17.080Z,21.15
2019-03-22T07:22:47.401Z,24.87
2019-03-22T07:28:09.454Z,45.33
2019-03-22T07:30:41.627Z,23.27
2019-03-22T07:33:11.943Z,19.95
2019-03-22T07:35:42.062Z,23.95
2019-03-22T07:38:13.512Z,21.65
2019-03-22T07:40:43.738Z,20.40
2019-03-22T07:43:13.962Z,18.98
2019-03-22T07:45:47.149Z,18.35
2019-03-22T07:48:17.678Z,17.90
2019-03-22T07:50:47.899Z,15.20
2019-03-22T07:53:19.498Z,14.50
2019-03-22T07:55:49.776Z,13.08
2019-03-22T07:58:19.896Z,12.50
2019-03-22T08:00:50.424Z,13.00
2019-03-22T08:03:21.875Z,13.25
2019-03-22T08:05:52.097Z,13.85
2019-03-22T08:08:25.495Z,12.30
2019-03-22T08:13:27.073Z,13.18
2019-03-22T08:15:59.448Z,13.30
2019-03-22T08:18:30.888Z,12.98
2019-03-22T08:21:01.127Z,13.20
2019-03-22T08:23:33.073Z,12.18
2019-03-22T08:26:05.958Z,13.13
2019-03-22T08:28:36.383Z,14.40
2019-03-22T08:31:06.610Z,13.58
2019-03-22T08:33:39.066Z,12.68
2019-03-22T08:36:09.135Z,14.03
2019-03-22T08:38:39.670Z,13.72
2019-03-22T08:41:10.974Z,14.25
2019-03-22T08:43:41.213Z,14.47
2019-03-22T08:46:14.322Z,13.65
2019-03-22T08:48:46.146Z,13.10
2019-03-22T08:51:16.470Z,13.98
2019-03-22T08:53:55.139Z,14.40
2019-03-22T08:56:20.498Z,14.50
2019-03-22T08:58:50.825Z,15.23
2019-03-22T09:01:22.065Z,14.10
2019-03-22T09:03:54.032Z,15.08
2019-03-22T09:06:24.355Z,14.63
2019-03-22T09:08:54.676Z,14.87
2019-03-22T09:11:25.032Z,15.18
2019-03-22T09:13:55.221Z,13.98
2019-03-22T09:16:25.559Z,14.50
2019-03-22T09:18:57.202Z,15.48
2019-03-22T09:21:27.424Z,15.83
2019-03-22T09:23:57.650Z,15.55
2019-03-22T09:26:27.875Z,15.88
2019-03-22T09:28:59.626Z,17.82
2019-03-22T09:31:33.226Z,15.40
2019-03-22T09:34:03.459Z,15.63
2019-03-22T09:36:33.671Z,14.38
2019-03-22T09:39:05.428Z,15.63
2019-03-22T09:41:37.311Z,15.55
2019-03-22T09:44:07.514Z,15.72
2019-03-22T09:46:39.078Z,16.25
2019-03-22T09:49:11.545Z,16.45
2019-03-22T09:51:41.869Z,16.35
2019-03-22T09:54:12.961Z,16.65
2019-03-22T09:56:47.212Z,17.98
2019-03-22T09:59:15.203Z,16.10
2019-03-22T10:01:45.515Z,16.48
2019-03-22T10:04:15.640Z,15.63
2019-03-22T10:06:46.059Z,16.15
2019-03-22T10:09:18.442Z,15.25
2019-03-22T10:12:08.264Z,14.75
2019-03-22T10:14:38.566Z,15.93
2019-03-22T10:17:08.966Z,16.25
2019-03-22T10:19:42.075Z,16.90
2019-03-22T10:22:13.659Z,18.10
2019-03-22T10:24:43.985Z,17.52
2019-03-22T10:27:14.268Z,16.48
2019-03-22T10:29:44.589Z,15.55
2019-03-22T10:32:14.912Z,15.75
2019-03-22T10:34:45.124Z,17.27
2019-03-22T10:37:15.951Z,13.78
2019-03-22T10:39:47.616Z,11.83
2019-03-22T10:45:12.123Z,14.70
2019-03-22T10:47:42.242Z,13.72
2019-03-22T10:50:12.566Z,15.45
2019-03-22T10:52:42.792Z,14.55
2019-03-22T10:55:29.257Z,13.78
2019-03-22T10:57:49.069Z,14.25
2019-03-22T11:00:19.393Z,13.28
2019-03-22T11:02:49.712Z,13.40
2019-03-22T11:05:21.475Z,14.75
2019-03-22T11:07:51.801Z,14.73
2019-03-22T11:10:24.890Z,15.83
2019-03-22T11:12:55.215Z,14.60
2019-03-22T11:15:25.434Z,14.30
2019-03-22T11:17:57.601Z,14.20
2019-03-22T11:20:27.824Z,15.08
2019-03-22T11:22:58.149Z,14.63
2019-03-22T11:25:28.266Z,14.00
2019-03-22T11:27:58.492Z,13.93
2019-03-22T11:30:45.711Z,13.88
2019-03-22T11:33:15.624Z,15.10
2019-03-22T11:35:47.282Z,14.95
2019-03-22T11:38:17.399Z,14.53
2019-03-22T11:40:49.248Z,13.98
2019-03-22T11:43:19.583Z,14.47
2019-03-22T11:45:49.805Z,14.60
2019-03-22T11:48:20.130Z,15.48
2019-03-22T11:50:50.555Z,13.93
2019-03-22T11:53:22.625Z,14.15
2019-03-22T11:55:52.848Z,13.72
2019-03-22T11:58:23.053Z,13.50
2019-03-22T12:00:53.389Z,13.80
2019-03-22T12:03:23.713Z,13.35
2019-03-22T12:05:56.703Z,13.95
2019-03-22T12:08:27.023Z,13.38
2019-03-22T12:10:58.884Z,13.68
2019-03-22T12:13:28.901Z,14.10
2019-03-22T12:16:02.196Z,14.47
2019-03-22T12:18:39.799Z,12.18
2019-03-22T12:21:10.113Z,11.53
2019-03-22T12:26:29.507Z,11.83
2019-03-22T12:28:59.724Z,12.55
2019-03-22T12:31:31.483Z,12.98
2019-03-22T12:34:01.807Z,14.87
2019-03-22T12:36:33.566Z,15.23
2019-03-22T12:39:05.432Z,14.18
2019-03-22T12:41:35.748Z,13.88
2019-03-22T12:44:05.969Z,14.20
2019-03-22T12:46:36.293Z,14.58
2019-03-22T12:49:09.177Z,14.63
2019-03-22T12:51:39.296Z,15.32
2019-03-22T12:54:09.521Z,13.75
2019-03-22T12:56:39.740Z,12.80
2019-03-22T12:59:09.963Z,14.15
2019-03-22T13:01:40.082Z,14.58
2019-03-22T13:04:10.405Z,12.78
2019-03-22T13:06:40.935Z,12.73
2019-03-22T13:11:44.724Z,13.32
2019-03-22T13:14:14.775Z,14.07
2019-03-22T13:16:47.966Z,14.75
2019-03-22T13:21:47.696Z,14.47
2019-03-22T13:24:18.017Z,21.52
2019-03-22T13:26:48.239Z,13.62
2019-03-22T13:29:20.408Z,15.75
2019-03-22T13:31:58.023Z,14.57
2019-03-22T13:34:28.327Z,13.10
2019-03-22T13:37:00.086Z,12.58
2019-03-22T13:39:30.411Z,13.72
2019-03-22T13:42:00.533Z,13.13
2019-03-22T13:44:30.748Z,13.10
2019-03-22T13:47:01.175Z,12.58
2019-03-22T13:49:34.162Z,12.63
2019-03-22T13:52:04.596Z,11.50
2019-03-22T13:54:34.708Z,11.95
2019-03-22T13:57:05.238Z,12.28
2019-03-22T13:59:35.459Z,11.63
2019-03-22T14:02:05.782Z,12.63
2019-03-22T14:04:37.028Z,12.28
2019-03-22T14:07:07.250Z,12.03
2019-03-22T14:09:37.370Z,12.10
2019-03-22T14:12:08.105Z,11.88
2019-03-22T14:14:38.223Z,11.70
2019-03-22T14:17:08.343Z,12.03
2019-03-22T14:19:40.100Z,12.10
2019-03-22T14:22:10.424Z,14.43
2019-03-22T14:24:42.284Z,19.32
2019-03-22T14:27:13.428Z,12.47
2019-03-22T14:29:44.366Z,13.05
2019-03-22T14:32:14.486Z,12.13
2019-03-22T14:34:44.810Z,12.45
2019-03-22T14:37:15.032Z,12.03
2019-03-22T14:39:45.254Z,12.23
2019-03-22T14:42:15.886Z,11.95
2019-03-22T14:44:46.218Z,13.22
2019-03-22T14:47:16.431Z,13.75
2019-03-22T14:49:46.679Z,13.28
2019-03-22T14:52:17.901Z,12.37
2019-03-22T14:54:48.538Z,13.18
2019-03-22T14:57:18.754Z,38.67
2019-03-22T14:59:58.371Z,13.25
2019-03-22T15:02:20.854Z,12.28
2019-03-22T15:07:57.223Z,12.07
2019-03-22T15:10:27.443Z,11.48
2019-03-22T15:12:57.872Z,12.58
2019-03-22T15:15:33.829Z,12.78
2019-03-22T15:18:06.101Z,12.30
2019-03-22T15:20:41.458Z,13.68
2019-03-22T15:23:28.862Z,11.60
2019-03-22T15:26:06.763Z,11.83
2019-03-22T15:28:45.024Z,12.18
2019-03-22T15:31:26.153Z,12.20
2019-03-22T15:34:01.085Z,11.93
2019-03-22T15:36:38.064Z,11.10
2019-03-22T15:39:13.007Z,12.03
2019-03-22T15:41:43.526Z,11.45
2019-03-22T15:44:13.910Z,11.20
2019-03-22T15:46:44.379Z,12.10
2019-03-22T15:49:17.676Z,12.18
2019-03-22T15:51:48.860Z,12.70
2019-03-22T15:54:27.643Z,11.45
2019-03-22T15:56:57.965Z,12.60
2019-03-22T15:59:36.892Z,13.45
2019-03-22T16:02:07.535Z,12.40
2019-03-22T16:04:39.178Z,13.35
2019-03-22T16:07:09.195Z,12.65
2019-03-22T16:09:39.522Z,14.33
2019-03-22T16:12:10.048Z,14.45
2019-03-22T16:14:40.371Z,14.60
2019-03-22T16:17:10.698Z,14.25
2019-03-22T16:19:40.918Z,15.03
2019-03-22T16:22:11.140Z,14.25
2019-03-22T16:24:41.258Z,14.00
2019-03-22T16:27:11.598Z,14.28
2019-03-22T16:29:42.933Z,14.25
2019-03-22T16:32:13.664Z,13.72
2019-03-22T16:34:43.886Z,13.88
2019-03-22T16:37:14.217Z,14.95
2019-03-22T16:39:44.230Z,13.75
2019-03-22T16:42:14.347Z,13.20
2019-03-22T16:45:37.590Z,13.78
2019-03-22T16:48:08.244Z,14.78
2019-03-22T16:50:39.489Z,14.63
2019-03-22T16:53:09.713Z,15.08
2019-03-22T16:55:40.035Z,14.95
2019-03-22T16:58:10.259Z,14.00
2019-03-22T17:00:40.490Z,14.98
2019-03-22T17:03:10.803Z,14.28
2019-03-22T17:05:41.132Z,14.55
2019-03-22T17:08:11.145Z,15.93
2019-03-22T17:10:41.802Z,16.00
2019-03-22T17:16:02.021Z,16.25
2019-03-22T17:18:32.718Z,16.95
2019-03-22T17:21:06.013Z,15.72
2019-03-22T17:23:37.359Z,17.62
2019-03-22T17:26:07.786Z,17.20
2019-03-22T17:28:38.304Z,18.95
2019-03-22T17:31:09.192Z,19.50
2019-03-22T17:34:00.106Z,19.70
2019-03-22T17:36:30.324Z,20.05
2019-03-22T17:39:02.057Z,17.60
2019-03-22T17:41:32.961Z,16.85
2019-03-22T17:44:03.207Z,17.95
2019-03-22T17:46:33.274Z,17.98
2019-03-22T17:49:03.486Z,17.17
2019-03-22T17:51:33.726Z,16.80
2019-03-22T17:54:03.927Z,19.27
2019-03-22T17:56:34.373Z,17.87
2019-03-22T17:59:08.978Z,16.90
2019-03-22T18:01:40.786Z,16.73
2019-03-22T18:04:10.793Z,17.37
2019-03-22T18:06:41.007Z,15.85
2019-03-22T18:09:11.138Z,16.45
2019-03-22T18:11:44.756Z,19.73
2019-03-22T18:14:14.791Z,20.32
2019-03-22T18:16:45.106Z,22.17
2019-03-22T18:19:15.319Z,23.52
2019-03-22T18:21:59.222Z,24.63
2019-03-22T18:24:29.372Z,22.87
2019-03-22T18:27:00.886Z,22.50
2019-03-22T18:29:31.485Z,20.85
2019-03-22T18:32:01.749Z,22.55
2019-03-22T18:34:34.855Z,23.20
2019-03-22T18:37:04.243Z,23.27
2019-03-22T18:39:36.083Z,22.58
2019-03-22T18:42:06.598Z,23.55
2019-03-22T18:44:36.680Z,23.50
2019-03-22T18:47:06.929Z,21.00
2019-03-22T18:49:38.658Z,20.90
2019-03-22T18:52:08.931Z,20.52
2019-03-22T18:54:39.030Z,21.80
2019-03-22T18:57:09.093Z,21.55
2019-03-22T18:59:40.729Z,21.10
2019-03-22T19:02:11.060Z,28.17
2019-03-22T19:04:44.360Z,26.05
2019-03-22T19:07:14.582Z,27.77
2019-03-22T19:09:44.662Z,26.48
2019-03-22T19:12:14.873Z,26.07
2019-03-22T19:14:45.065Z,27.90
2019-03-22T19:17:15.592Z,23.87
2019-03-22T19:19:47.553Z,23.60
2019-03-22T19:22:17.756Z,24.35
2019-03-22T19:24:47.831Z,34.75
2019-03-22T19:27:23.126Z,22.98
2019-03-22T19:29:54.783Z,19.65
2019-03-22T19:50:54.692Z,20.27
2019-03-22T19:53:26.929Z,27.30
2019-03-22T19:55:57.101Z,58.73
2019-03-22T19:58:27.173Z,22.00
2019-03-22T20:00:57.415Z,41.50
2019-03-22T20:03:27.819Z,43.98
2019-03-22T20:05:58.000Z,115.75
2019-03-22T20:08:28.095Z,62.38
2019-03-22T20:10:58.240Z,21.05
2019-03-22T20:13:29.913Z,20.55
2019-03-22T20:16:00.358Z,22.77
2019-03-22T20:18:30.536Z,22.17
2019-03-22T20:21:02.646Z,21.07
2019-03-22T20:23:35.120Z,21.30
2019-03-22T20:26:05.451Z,21.52
2019-03-22T20:28:36.805Z,22.45
2019-03-22T20:31:06.895Z,31.87
2019-03-22T20:33:37.070Z,35.08
2019-03-22T20:36:07.241Z,38.00
2019-03-22T20:38:37.491Z,32.48
2019-03-22T20:41:07.724Z,26.77
2019-03-22T20:43:37.897Z,26.00
2019-03-22T20:46:08.043Z,24.30
2019-03-22T20:48:38.330Z,23.83
2019-03-22T20:51:25.442Z,35.00
2019-03-22T20:53:55.735Z,39.00
2019-03-22T20:56:27.589Z,37.65
2019-03-22T20:58:57.789Z,50.17
2019-03-22T21:01:28.058Z,29.90
2019-03-22T21:03:59.808Z,24.05
2019-03-22T21:06:32.985Z,24.57
2019-03-22T21:09:06.717Z,24.07
2019-03-22T21:11:37.209Z,23.80
2019-03-22T21:14:08.997Z,28.83
2019-03-22T21:16:39.215Z,41.37
2019-03-22T21:19:09.675Z,31.12
2019-03-22T21:21:40.400Z,48.48
2019-03-22T21:24:10.718Z,59.20
2019-03-22T21:26:42.172Z,28.77
2019-03-22T21:29:12.514Z,23.40
2019-03-22T21:31:42.653Z,24.20
2019-03-22T21:34:12.899Z,23.32
2019-03-22T21:36:43.121Z,23.10
2019-03-22T21:39:13.536Z,20.50
2019-03-22T21:41:43.843Z,22.42
2019-03-22T21:44:14.708Z,21.48
2019-03-22T21:46:45.190Z,22.17
2019-03-22T21:49:16.853Z,20.95
2019-03-22T21:51:48.185Z,22.65
2019-03-22T21:54:18.553Z,22.70
2019-03-22T21:56:50.299Z,21.82
2019-03-22T21:59:20.631Z,21.05
2019-03-22T22:01:50.828Z,20.70
2019-03-22T22:04:28.994Z,23.52
2019-03-22T22:06:59.082Z,21.70
2019-03-22T22:09:31.977Z,21.02
2019-03-22T22:15:45.782Z,22.75
2019-03-22T22:18:18.034Z,20.97
2019-03-22T22:20:51.561Z,23.25
2019-03-22T22:23:21.737Z,84.60
2019-03-22T22:25:51.806Z,112.60
2019-03-22T22:28:25.138Z,30.45
2019-03-22T22:30:56.833Z,28.40
2019-03-22T22:33:28.534Z,44.60
2019-03-22T22:35:59.208Z,25.17
2019-03-22T22:38:29.456Z,31.15
2019-03-22T22:41:01.654Z,27.37
2019-03-22T22:43:35.130Z,27.07
2019-03-22T22:48:45.036Z,24.30
2019-03-22T22:54:10.030Z,24.98
2019-03-22T22:56:40.162Z,25.15
2019-03-22T22:59:10.307Z,24.82
2019-03-22T23:01:40.398Z,23.85
2019-03-22T23:04:10.506Z,26.42
2019-03-22T23:06:40.647Z,27.20
2019-03-22T23:09:12.351Z,26.07
2019-03-22T23:11:42.346Z,26.23
2019-03-22T23:14:12.458Z,27.17
2019-03-22T23:16:42.553Z,26.97
2019-03-22T23:19:15.354Z,25.45
2019-03-22T23:21:45.458Z,25.10
2019-03-22T23:27:46.201Z,26.40
2019-03-22T23:30:19.293Z,25.62
2019-03-22T23:32:49.619Z,27.45
2019-03-22T23:35:19.946Z,26.50
2019-03-22T23:37:51.491Z,26.12
2019-03-22T23:40:22.752Z,26.63
2019-03-22T23:42:54.812Z,27.30
2019-03-22T23:45:25.248Z,26.57
2019-03-22T23:47:55.575Z,26.75
2019-03-22T23:50:26.006Z,25.35
2019-03-22T23:52:55.977Z,24.70
2019-03-22T23:55:26.126Z,25.48
2019-03-22T23:57:57.911Z,25.43
